createdAt,value
2023-04-01T00:02:05.527Z,94829.50
2023-04-01T00:04:33.254Z,94820.56
2023-04-01T00:07:01.219Z,94812.81
2023-04-01T00:09:29.998Z,94803.06
2023-04-01T00:11:58.982Z,94815.38
2023-04-01T00:14:26.465Z,94815.75
2023-04-01T00:16:54.173Z,94809.84
2023-04-01T00:19:21.675Z,94818.13
2023-04-01T00:21:49.329Z,94824.03
2023-04-01T00:24:16.831Z,94812.84
2023-04-01T00:26:45.465Z,94812.28
2023-04-01T00:29:14.307Z,94818.94
2023-04-01T00:31:41.830Z,94811.00
2023-04-01T00:34:09.363Z,94814.31
2023-04-01T00:36:36.850Z,94811.28
2023-04-01T00:39:04.556Z,94812.09
2023-04-01T00:41:32.019Z,94806.03
2023-04-01T00:46:54.381Z,94812.59
2023-04-01T00:49:26.046Z,94799.69
2023-04-01T00:51:56.734Z,94801.50
2023-04-01T00:54:26.528Z,94814.91
2023-04-01T00:56:58.861Z,94813.88
2023-04-01T00:59:28.514Z,94823.56
2023-04-01T01:01:57.477Z,94810.34
2023-04-01T01:04:26.915Z,94801.78
2023-04-01T01:07:04.141Z,94801.31
2023-04-01T01:09:41.557Z,94798.13
2023-04-01T01:12:15.009Z,94799.41
2023-04-01T01:14:54.378Z,94801.41
2023-04-01T01:17:31.590Z,94799.69
2023-04-01T01:20:25.919Z,94805.16
2023-04-01T01:23:18.771Z,94808.91
2023-04-01T01:25:51.460Z,94807.38
2023-04-01T01:28:35.405Z,94803.81
2023-04-01T01:31:14.587Z,94803.00
2023-04-01T01:33:55.330Z,94796.56
2023-04-01T01:36:27.149Z,94798.78
2023-04-01T01:38:55.325Z,94800.00
2023-04-01T01:41:24.456Z,94803.16
2023-04-01T01:43:54.769Z,94803.38
2023-04-01T01:46:25.880Z,94796.97
2023-04-01T01:48:54.224Z,94804.63
2023-04-01T01:51:24.683Z,94803.97
2023-04-01T01:53:52.174Z,94796.97
2023-04-01T01:56:23.582Z,94795.97
2023-04-01T01:58:54.668Z,94800.72
2023-04-01T02:01:26.561Z,94794.59
2023-04-01T02:03:55.407Z,94802.13
2023-04-01T02:06:27.931Z,94785.56
2023-04-01T02:08:58.097Z,94791.97
2023-04-01T02:11:30.455Z,94794.78
2023-04-01T02:14:04.701Z,94792.75
2023-04-01T02:16:37.023Z,94795.50
2023-04-01T02:19:08.278Z,94797.59
2023-04-01T02:21:38.867Z,94807.09
2023-04-01T02:24:09.817Z,94792.34
2023-04-01T02:26:37.339Z,94802.16
2023-04-01T02:29:07.419Z,94803.28
2023-04-01T02:31:36.183Z,94800.88
2023-04-01T02:34:05.355Z,94800.63
2023-04-01T02:36:33.816Z,94808.56
2023-04-01T02:39:05.231Z,94813.19
2023-04-01T02:41:32.758Z,94802.34
2023-04-01T02:44:00.323Z,94810.09
2023-04-01T02:46:27.869Z,94813.47
2023-04-01T02:48:55.710Z,94817.84
2023-04-01T02:51:23.177Z,94816.66
2023-04-01T02:53:50.948Z,94818.72
2023-04-01T02:56:20.528Z,94822.66
2023-04-01T02:58:48.017Z,94827.94
2023-04-01T03:01:15.595Z,94829.81
2023-04-01T03:03:43.134Z,94828.59
2023-04-01T03:06:12.973Z,94829.72
2023-04-01T03:08:40.555Z,94835.16
2023-04-01T03:11:08.321Z,94843.31
2023-04-01T03:13:37.139Z,94842.34
2023-04-01T03:16:05.082Z,94832.50
2023-04-01T03:18:32.556Z,94838.06
2023-04-01T03:21:14.338Z,94840.28
2023-04-01T03:23:41.818Z,94837.53
2023-04-01T03:26:09.671Z,94839.31
2023-04-01T03:28:38.807Z,94838.53
2023-04-01T03:31:07.083Z,94834.03
2023-04-01T03:33:34.665Z,94843.66
2023-04-01T03:36:02.206Z,94842.28
2023-04-01T03:38:29.717Z,94840.91
2023-04-01T03:40:57.187Z,94846.50
2023-04-01T03:43:24.651Z,94848.28
2023-04-01T03:45:55.425Z,94844.44
2023-04-01T03:48:22.942Z,94837.94
2023-04-01T03:50:50.712Z,94852.53
2023-04-01T03:53:18.210Z,94847.91
2023-04-01T03:55:45.952Z,94850.84
2023-04-01T03:58:13.646Z,94835.63
2023-04-01T04:00:41.628Z,94843.00
2023-04-01T04:03:10.763Z,94850.84
2023-04-01T04:05:38.287Z,94846.19
2023-04-01T04:08:06.149Z,94848.75
2023-04-01T04:10:33.647Z,94842.44
2023-04-01T04:13:01.090Z,94858.13
2023-04-01T04:15:28.550Z,94861.56
2023-04-01T04:17:56.034Z,94861.41
2023-04-01T04:20:24.861Z,94863.16
2023-04-01T04:22:52.339Z,94864.63
2023-04-01T04:25:19.819Z,94865.59
2023-04-01T04:27:47.450Z,94876.25
2023-04-01T04:30:15.591Z,94874.75
2023-04-01T04:32:43.175Z,94872.47
2023-04-01T04:35:10.819Z,94879.75
2023-04-01T04:37:39.618Z,94879.00
2023-04-01T04:40:08.637Z,94871.34
2023-04-01T04:42:36.135Z,94883.16
2023-04-01T04:45:03.940Z,94876.09
2023-04-01T04:47:31.445Z,94879.03
2023-04-01T04:49:58.922Z,94870.28
2023-04-01T04:52:26.374Z,94874.28
2023-04-01T04:54:55.290Z,94877.91
2023-04-01T04:57:22.883Z,94880.00
2023-04-01T04:59:50.492Z,94888.00
2023-04-01T05:02:18.525Z,94892.31
2023-04-01T05:04:45.974Z,94893.59
2023-04-01T05:07:13.603Z,94885.19
2023-04-01T05:09:41.232Z,94892.28
2023-04-01T05:12:10.071Z,94902.94
2023-04-01T05:14:37.672Z,94894.72
2023-04-01T05:17:05.324Z,94895.66
2023-04-01T05:19:32.858Z,94897.22
2023-04-01T05:22:00.334Z,94908.13
2023-04-01T05:24:27.884Z,94887.63
2023-04-01T05:26:56.866Z,94902.41
2023-04-01T05:29:26.136Z,94892.09
2023-04-01T05:31:53.783Z,94895.00
2023-04-01T05:34:21.253Z,94884.00
2023-04-01T05:36:48.720Z,94882.91
2023-04-01T05:39:16.357Z,94881.34
2023-04-01T05:41:44.047Z,94894.19
2023-04-01T05:44:13.561Z,94888.47
2023-04-01T05:46:42.584Z,94891.91
2023-04-01T05:49:10.164Z,94886.38
2023-04-01T05:51:37.638Z,94893.84
2023-04-01T05:54:06.714Z,94890.66
2023-04-01T05:56:34.198Z,94887.88
2023-04-01T05:59:01.668Z,94897.06
2023-04-01T06:01:29.137Z,94889.44
2023-04-01T06:03:58.102Z,94895.03
2023-04-01T06:06:28.077Z,94887.16
2023-04-01T06:08:58.435Z,94890.66
2023-04-01T06:11:34.630Z,94903.66
2023-04-01T06:14:12.159Z,94895.53
2023-04-01T06:16:51.646Z,94898.38
2023-04-01T06:19:31.214Z,94890.88
2023-04-01T06:22:30.044Z,94891.25
2023-04-01T06:25:15.114Z,94902.16
2023-04-01T06:28:02.918Z,94909.88
2023-04-01T06:30:40.265Z,94907.53
2023-04-01T06:33:29.807Z,94912.88
2023-04-01T06:36:19.988Z,94906.88
2023-04-01T06:39:00.571Z,94912.03
2023-04-01T06:41:46.754Z,94915.00
2023-04-01T06:44:22.256Z,94925.16
2023-04-01T06:46:59.291Z,94915.72
2023-04-01T06:49:46.463Z,94923.13
2023-04-01T06:52:23.683Z,94924.38
2023-04-01T06:54:55.298Z,94910.81
2023-04-01T06:57:30.412Z,94909.72
2023-04-01T07:00:01.747Z,94915.91
2023-04-01T07:02:36.831Z,94914.25
2023-04-01T07:05:06.259Z,94902.28
2023-04-01T07:07:41.249Z,94897.31
2023-04-01T07:10:14.836Z,94895.88
2023-04-01T07:12:48.793Z,94896.13
2023-04-01T07:15:21.213Z,94902.56
2023-04-01T07:17:54.480Z,94900.38
2023-04-01T07:20:28.176Z,94903.47
2023-04-01T07:23:00.513Z,94901.53
2023-04-01T07:25:31.264Z,94900.44
2023-04-01T07:28:03.021Z,94895.13
2023-04-01T07:30:37.851Z,94903.63
2023-04-01T07:33:11.774Z,94910.06
2023-04-01T07:35:45.402Z,94908.25
2023-04-01T07:38:25.014Z,94900.94
2023-04-01T07:41:05.135Z,94894.53
2023-04-01T07:43:44.256Z,94911.72
2023-04-01T07:46:23.456Z,94904.34
2023-04-01T07:48:58.684Z,94906.66
2023-04-01T07:51:31.225Z,94908.16
2023-04-01T07:54:08.805Z,94908.88
2023-04-01T07:56:44.720Z,94919.53
2023-04-01T07:59:23.758Z,94910.81
2023-04-01T08:02:00.297Z,94909.66
2023-04-01T08:04:43.509Z,94903.91
2023-04-01T08:07:15.371Z,94903.22
2023-04-01T08:09:51.868Z,94904.75
2023-04-01T08:12:29.665Z,94896.81
2023-04-01T08:15:10.565Z,94895.88
2023-04-01T08:17:46.767Z,94901.81
2023-04-01T08:20:27.176Z,94891.72
2023-04-01T08:23:01.831Z,94883.22
2023-04-01T08:25:32.886Z,94886.72
2023-04-01T08:28:06.414Z,94887.06
2023-04-01T08:30:43.154Z,94889.25
2023-04-01T08:33:16.644Z,94881.44
2023-04-01T08:35:51.229Z,94880.59
2023-04-01T08:38:23.664Z,94878.44
2023-04-01T08:41:01.701Z,94891.13
2023-04-01T08:43:45.841Z,94883.97
2023-04-01T08:46:37.080Z,94881.50
2023-04-01T08:49:24.707Z,94892.34
2023-04-01T08:52:16.976Z,94879.66
2023-04-01T08:55:11.731Z,94877.50
2023-04-01T08:57:56.770Z,94868.03
2023-04-01T09:00:32.487Z,94871.72
2023-04-01T09:03:36.158Z,94866.66
2023-04-01T09:06:26.024Z,94856.78
2023-04-01T09:09:08.371Z,94869.06
2023-04-01T09:11:51.585Z,94858.06
2023-04-01T09:14:35.209Z,94860.84
2023-04-01T09:17:37.574Z,94871.69
2023-04-01T09:20:22.034Z,94867.88
2023-04-01T09:23:09.886Z,94869.53
2023-04-01T09:26:01.628Z,94870.56
2023-04-01T09:28:35.796Z,94865.88
2023-04-01T09:31:27.797Z,94888.34
2023-04-01T09:34:23.428Z,94883.34
2023-04-01T09:37:01.211Z,94858.50
2023-04-01T09:39:38.225Z,94880.38
2023-04-01T09:42:24.378Z,94876.88
2023-04-01T09:44:59.436Z,94872.84
2023-04-01T09:47:45.968Z,94854.41
2023-04-01T09:50:31.630Z,94865.03
2023-04-01T09:53:14.281Z,94866.50
2023-04-01T09:56:04.394Z,94882.97
2023-04-01T09:58:59.273Z,94878.91
2023-04-01T10:01:45.984Z,94884.44
2023-04-01T10:04:33.553Z,94885.50
2023-04-01T10:07:28.347Z,94892.03
2023-04-01T10:10:28.037Z,94891.63
2023-04-01T10:13:16.669Z,94883.16
2023-04-01T10:16:12.299Z,94883.41
2023-04-01T10:18:58.540Z,94874.44
2023-04-01T10:21:59.818Z,94878.56
2023-04-01T10:25:05.728Z,94876.09
2023-04-01T10:28:08.204Z,94864.03
2023-04-01T10:31:26.192Z,94864.44
2023-04-01T10:34:23.679Z,94847.81
2023-04-01T10:36:56.960Z,94864.75
2023-04-01T10:39:54.644Z,94851.69
2023-04-01T10:42:53.307Z,94862.00
2023-04-01T10:45:53.300Z,94852.38
2023-04-01T10:48:46.681Z,94857.66
2023-04-01T10:51:23.304Z,94849.28
2023-04-01T10:54:21.140Z,94848.19
2023-04-01T10:56:56.595Z,94855.19
2023-04-01T10:59:57.713Z,94844.53
2023-04-01T11:03:04.771Z,94852.91
2023-04-01T11:06:01.211Z,94845.75
2023-04-01T11:09:08.099Z,94862.56
2023-04-01T11:12:20.519Z,94861.34
2023-04-01T11:15:33.377Z,94874.19
2023-04-01T11:18:45.432Z,94870.69
2023-04-01T11:21:44.811Z,94887.34
2023-04-01T11:24:23.563Z,94892.88
2023-04-01T11:27:05.929Z,94894.13
2023-04-01T11:29:58.720Z,94892.25
2023-04-01T11:32:37.209Z,94890.78
2023-04-01T11:35:35.070Z,94895.09
2023-04-01T11:38:16.608Z,94889.06
2023-04-01T11:40:49.542Z,94899.53
2023-04-01T11:43:32.780Z,94898.44
2023-04-01T11:46:09.829Z,94905.25
2023-04-01T11:49:00.199Z,94900.72
2023-04-01T11:51:52.933Z,94902.41
2023-04-01T11:54:30.679Z,94897.69
2023-04-01T11:57:12.546Z,94899.88
2023-04-01T11:59:54.621Z,94898.34
2023-04-01T12:02:30.531Z,94908.59
2023-04-01T12:05:20.913Z,94900.28
2023-04-01T12:08:02.092Z,94909.50
2023-04-01T12:10:39.710Z,94913.41
2023-04-01T12:13:16.905Z,94913.69
2023-04-01T12:15:58.783Z,94917.94
2023-04-01T12:18:33.941Z,94910.94
2023-04-01T12:21:16.909Z,94905.94
2023-04-01T12:24:03.441Z,94920.91
2023-04-01T12:26:43.031Z,94914.22
2023-04-01T12:29:39.551Z,94913.53
2023-04-01T12:32:19.504Z,94913.94
2023-04-01T12:35:17.047Z,94920.94
2023-04-01T12:37:53.701Z,94920.03
2023-04-01T12:40:32.734Z,94917.41
2023-04-01T12:43:12.794Z,94911.84
2023-04-01T12:45:45.506Z,94924.13
2023-04-01T12:48:40.485Z,94923.81
2023-04-01T12:51:47.172Z,94919.22
2023-04-01T12:54:48.154Z,94917.03
2023-04-01T12:57:44.197Z,94916.50
2023-04-01T13:00:27.732Z,94911.72
2023-04-01T13:03:12.960Z,94920.31
2023-04-01T13:05:56.792Z,94924.97
2023-04-01T13:08:42.330Z,94929.59
2023-04-01T13:11:22.410Z,94929.59
2023-04-01T13:14:31.913Z,94936.31
2023-04-01T13:17:09.756Z,94935.28
2023-04-01T13:19:48.591Z,94936.47
2023-04-01T13:22:32.282Z,94942.09
2023-04-01T13:25:08.149Z,94939.13
2023-04-01T13:27:42.549Z,94937.09
2023-04-01T13:30:26.541Z,94939.56
2023-04-01T13:33:03.804Z,94944.53
2023-04-01T13:35:40.924Z,94942.09
2023-04-01T13:38:30.488Z,94936.84
2023-04-01T13:41:07.885Z,94938.50
2023-04-01T13:43:41.485Z,94941.78
2023-04-01T13:46:24.690Z,94940.16
2023-04-01T13:49:07.161Z,94947.19
2023-04-01T13:51:59.000Z,94945.69
2023-04-01T13:54:53.624Z,94948.63
2023-04-01T13:57:40.389Z,94950.72
2023-04-01T14:00:41.025Z,94951.47
2023-04-01T14:03:34.065Z,94955.44
2023-04-01T14:06:12.107Z,94952.38
2023-04-01T14:08:57.982Z,94948.94
2023-04-01T14:11:35.852Z,94964.34
2023-04-01T14:14:15.619Z,94961.59
2023-04-01T14:17:29.622Z,94958.03
2023-04-01T14:20:27.537Z,94954.56
2023-04-01T14:23:15.678Z,94953.88
2023-04-01T14:26:00.354Z,94953.94
2023-04-01T14:28:34.515Z,94956.31
2023-04-01T14:31:30.659Z,94955.38
2023-04-01T14:34:13.313Z,94957.56
2023-04-01T14:36:51.303Z,94960.06
2023-04-01T14:39:41.231Z,94963.16
2023-04-01T14:42:24.517Z,94959.97
2023-04-01T14:45:09.927Z,94968.81
2023-04-01T14:47:48.348Z,94961.97
2023-04-01T14:50:19.969Z,94959.84
2023-04-01T14:52:58.684Z,94958.31
2023-04-01T14:55:33.585Z,94973.75
2023-04-01T14:58:09.675Z,94961.03
2023-04-01T15:00:56.441Z,94965.50
2023-04-01T15:03:30.838Z,94960.97
2023-04-01T15:06:20.664Z,94961.19
2023-04-01T15:08:59.166Z,94969.19
2023-04-01T15:11:42.095Z,94961.44
2023-04-01T15:14:26.342Z,94969.03
2023-04-01T15:17:03.159Z,94961.84
2023-04-01T15:19:43.909Z,94964.25
2023-04-01T15:22:39.438Z,94971.25
2023-04-01T15:25:22.085Z,94972.91
2023-04-01T15:27:57.528Z,94967.81
2023-04-01T15:30:38.355Z,94967.16
2023-04-01T15:33:34.167Z,94969.69
2023-04-01T15:36:14.796Z,94977.09
2023-04-01T15:38:52.885Z,94979.66
2023-04-01T15:41:28.293Z,94977.06
2023-04-01T15:43:55.801Z,94981.47
2023-04-01T15:46:44.907Z,94983.00
2023-04-01T15:49:24.015Z,94983.94
2023-04-01T15:52:05.003Z,94988.34
2023-04-01T15:55:02.942Z,94991.84
2023-04-01T15:57:38.179Z,94988.34
2023-04-01T16:00:18.751Z,94979.16
2023-04-01T16:02:52.007Z,94989.63
2023-04-01T16:05:36.419Z,94991.50
2023-04-01T16:08:21.960Z,94985.78
2023-04-01T16:11:01.141Z,94986.69
2023-04-01T16:13:46.971Z,94993.13
2023-04-01T16:16:25.631Z,94988.22
2023-04-01T16:19:09.829Z,94996.41
2023-04-01T16:21:45.207Z,94987.63
2023-04-01T16:24:19.725Z,94997.00
2023-04-01T16:26:55.679Z,95002.66
2023-04-01T16:29:30.883Z,95010.00
2023-04-01T16:32:12.364Z,95012.78
2023-04-01T16:34:46.060Z,95010.25
2023-04-01T16:37:18.041Z,95013.38
2023-04-01T16:39:51.389Z,95018.34
2023-04-01T16:42:28.085Z,95021.13
2023-04-01T16:45:01.513Z,95019.59
2023-04-01T16:47:33.332Z,95019.88
2023-04-01T16:50:07.682Z,95023.84
2023-04-01T16:52:50.520Z,95026.19
2023-04-01T16:55:19.997Z,95034.84
2023-04-01T16:57:53.630Z,95031.84
2023-04-01T17:00:28.160Z,95032.59
2023-04-01T17:03:06.372Z,95029.19
2023-04-01T17:05:47.434Z,95040.16
2023-04-01T17:08:26.355Z,95055.59
2023-04-01T17:10:59.049Z,95052.84
2023-04-01T17:13:37.412Z,95062.69
2023-04-01T17:16:31.069Z,95053.13
2023-04-01T17:19:07.301Z,95048.84
2023-04-01T17:21:49.086Z,95057.94
2023-04-01T17:24:32.469Z,95054.59
2023-04-01T17:27:11.681Z,95057.41
2023-04-01T17:30:03.288Z,95053.28
2023-04-01T17:32:43.809Z,95066.31
2023-04-01T17:35:16.588Z,95064.31
2023-04-01T17:37:55.231Z,95073.75
2023-04-01T17:40:35.869Z,95074.81
2023-04-01T17:43:14.293Z,95081.44
2023-04-01T17:45:49.155Z,95074.91
2023-04-01T17:48:26.196Z,95072.50
2023-04-01T17:51:04.469Z,95080.56
2023-04-01T17:53:39.453Z,95079.88
2023-04-01T17:56:13.821Z,95078.41
2023-04-01T17:58:47.535Z,95080.88
2023-04-01T18:01:28.505Z,95083.63
2023-04-01T18:04:12.984Z,95089.38
2023-04-01T18:06:56.291Z,95078.56
2023-04-01T18:09:35.965Z,95081.59
2023-04-01T18:12:14.902Z,95097.06
2023-04-01T18:15:01.842Z,95087.72
2023-04-01T18:17:43.910Z,95094.91
2023-04-01T18:20:27.728Z,95095.91
2023-04-01T18:22:59.056Z,95101.13
2023-04-01T18:25:34.546Z,95096.28
2023-04-01T18:28:20.119Z,95105.97
2023-04-01T18:30:55.753Z,95106.16
2023-04-01T18:33:30.365Z,95103.94
2023-04-01T18:36:10.356Z,95113.72
2023-04-01T18:38:41.317Z,95118.84
2023-04-01T18:41:15.736Z,95116.09
2023-04-01T18:43:57.165Z,95122.19
2023-04-01T18:46:33.062Z,95117.81
2023-04-01T18:49:10.019Z,95131.06
2023-04-01T18:51:46.851Z,95127.31
2023-04-01T18:54:17.503Z,95132.59
2023-04-01T18:56:46.737Z,95137.16
2023-04-01T18:59:22.097Z,95137.63
2023-04-01T19:01:59.206Z,95152.50
2023-04-01T19:04:37.743Z,95149.94
2023-04-01T19:07:50.612Z,95141.19
2023-04-01T19:10:26.631Z,95142.03
2023-04-01T19:13:12.864Z,95143.00
2023-04-01T19:15:46.449Z,95149.13
2023-04-01T19:18:30.426Z,95154.16
2023-04-01T19:21:03.660Z,95157.34
2023-04-01T19:24:12.381Z,95167.47
2023-04-01T19:26:46.143Z,95163.19
2023-04-01T19:29:25.997Z,95173.50
2023-04-01T19:32:05.100Z,95170.56
2023-04-01T19:34:45.984Z,95177.06
2023-04-01T19:37:27.216Z,95177.06
2023-04-01T19:40:01.834Z,95177.88
2023-04-01T19:42:40.405Z,95176.38
2023-04-01T19:45:27.145Z,95182.88
2023-04-01T19:48:04.101Z,95182.97
2023-04-01T19:50:36.645Z,95183.78
2023-04-01T19:53:15.828Z,95176.03
2023-04-01T19:55:48.621Z,95187.50
2023-04-01T19:58:22.735Z,95183.19
2023-04-01T20:00:53.418Z,95189.22
2023-04-01T20:03:36.474Z,95186.41
2023-04-01T20:06:15.347Z,95189.22
2023-04-01T20:08:52.751Z,95183.75
2023-04-01T20:11:32.777Z,95195.44
2023-04-01T20:14:10.102Z,95193.53
2023-04-01T20:16:55.049Z,95195.25
2023-04-01T20:19:30.630Z,95196.44
2023-04-01T20:22:01.263Z,95207.66
2023-04-01T20:24:36.284Z,95196.44
2023-04-01T20:27:10.330Z,95197.63
2023-04-01T20:29:44.244Z,95196.91
2023-04-01T20:32:27.210Z,95195.06
2023-04-01T20:35:19.803Z,95202.34
2023-04-01T20:37:55.630Z,95204.53
2023-04-01T20:40:34.007Z,95210.59
2023-04-01T20:43:44.536Z,95202.31
2023-04-01T20:46:20.942Z,95216.63
2023-04-01T20:49:24.855Z,95215.81
2023-04-01T20:51:56.792Z,95213.81
2023-04-01T20:54:38.961Z,95218.56
2023-04-01T20:57:13.258Z,95210.41
2023-04-01T20:59:56.160Z,95216.44
2023-04-01T21:02:49.222Z,95215.59
2023-04-01T21:06:09.740Z,95214.25
2023-04-01T21:08:48.895Z,95219.63
2023-04-01T21:11:23.170Z,95214.81
2023-04-01T21:14:09.153Z,95214.88
2023-04-01T21:16:46.145Z,95212.78
2023-04-01T21:19:37.300Z,95224.47
2023-04-01T21:22:22.153Z,95222.63
2023-04-01T21:25:23.599Z,95223.38
2023-04-01T21:28:07.374Z,95231.28
2023-04-01T21:30:49.214Z,95240.16
2023-04-01T21:33:34.709Z,95232.38
2023-04-01T21:36:12.347Z,95243.09
2023-04-01T21:38:56.497Z,95241.94
2023-04-01T21:41:46.561Z,95241.72
2023-04-01T21:44:38.096Z,95253.47
2023-04-01T21:47:40.418Z,95250.44
2023-04-01T21:50:44.241Z,95256.41
2023-04-01T21:54:08.670Z,95256.28
2023-04-01T21:57:05.399Z,95258.91
2023-04-01T22:00:23.232Z,95258.25
2023-04-01T22:03:30.774Z,95262.22
2023-04-01T22:06:15.325Z,95258.31
2023-04-01T22:08:56.707Z,95256.41
2023-04-01T22:11:34.281Z,95256.84
2023-04-01T22:14:08.390Z,95258.09
2023-04-01T22:16:42.994Z,95256.84
2023-04-01T22:19:20.801Z,95262.19
2023-04-01T22:22:02.445Z,95265.50
2023-04-01T22:24:45.934Z,95263.38
2023-04-01T22:27:23.227Z,95262.47
2023-04-01T22:30:01.376Z,95268.63
2023-04-01T22:32:33.949Z,95267.81
2023-04-01T22:35:10.332Z,95262.25
2023-04-01T22:37:52.839Z,95268.88
2023-04-01T22:40:27.219Z,95259.94
2023-04-01T22:43:00.036Z,95266.78
2023-04-01T22:45:49.210Z,95268.06
2023-04-01T22:48:22.726Z,95273.81
2023-04-01T22:50:57.572Z,95271.44
2023-04-01T22:53:43.016Z,95276.09
2023-04-01T22:56:16.939Z,95278.25
2023-04-01T22:58:49.529Z,95291.47
2023-04-01T23:01:21.892Z,95284.66
2023-04-01T23:03:51.856Z,95285.38
2023-04-01T23:06:22.677Z,95290.09
2023-04-01T23:09:07.085Z,95289.16
2023-04-01T23:11:39.248Z,95300.19
2023-04-01T23:14:29.811Z,95294.66
2023-04-01T23:17:06.808Z,95298.06
2023-04-01T23:19:39.743Z,95297.50
2023-04-01T23:22:18.903Z,95302.25
2023-04-01T23:24:55.009Z,95299.47
2023-04-01T23:27:29.101Z,95311.00
2023-04-01T23:29:56.554Z,95314.25
2023-04-01T23:32:27.490Z,95316.94
2023-04-01T23:34:58.024Z,95314.97
2023-04-01T23:37:26.309Z,95321.25
2023-04-01T23:39:57.763Z,95321.00
2023-04-01T23:42:27.746Z,95322.75
2023-04-01T23:44:58.110Z,95329.16
2023-04-01T23:47:29.840Z,95329.72
2023-04-01T23:49:59.259Z,95334.97
2023-04-01T23:52:29.285Z,95333.19
2023-04-01T23:55:01.264Z,95338.41
2023-04-01T23:57:31.689Z,95337.25
